Time;durP1;ratioP1;P1;durP2;ratioP2;P2;SDS_P1;SDS_P2;PMS_P1;PMS_P2;Temp;Humidity;BMP_temperature;BMP_pressure;BME280_temperature;BME280_humidity;BME280_pressure;Samples;Min_cycle;Max_cycle;Signal;HPM_P1;HPM_P2
2023/07/05 00:00:53;;;;;;;28.05;18.02;;;;;;;;;;5046537;28;20107;-72
2023/07/05 00:03:19;;;;;;;34.38;19.48;;;;;;;;;;5048826;28;20469;-71
2023/07/05 00:05:48;;;;;;;37.60;19.27;;;;;;;;;;5049201;28;20500;-71
2023/07/05 00:08:14;;;;;;;37.40;20.23;;;;;;;;;;5034789;28;20040;-71
2023/07/05 00:10:40;;;;;;;35.42;19.98;;;;;;;;;;5030039;28;20073;-72
2023/07/05 00:13:06;;;;;;;37.40;20.35;;;;;;;;;;5029499;28;20497;-72
2023/07/05 00:15:33;;;;;;;34.75;20.63;;;;;;;;;;5047425;28;20021;-72
2023/07/05 00:17:59;;;;;;;45.42;21.35;;;;;;;;;;5048105;28;20021;-72
2023/07/05 00:20:25;;;;;;;34.67;19.85;;;;;;;;;;5044916;28;20029;-71
2023/07/05 00:22:52;;;;;;;38.85;21.33;;;;;;;;;;5050229;28;20041;-74
2023/07/05 00:25:18;;;;;;;38.35;23.02;;;;;;;;;;5029527;28;20029;-72
2023/07/05 00:27:44;;;;;;;38.15;23.25;;;;;;;;;;5050103;28;20033;-72
2023/07/05 00:30:11;;;;;;;40.05;22.25;;;;;;;;;;5028203;28;20036;-72
2023/07/05 00:32:37;;;;;;;35.67;22.58;;;;;;;;;;5031121;28;20024;-71
2023/07/05 00:35:03;;;;;;;43.33;22.35;;;;;;;;;;5014934;28;20033;-71
2023/07/05 00:37:30;;;;;;;39.40;21.05;;;;;;;;;;5035130;28;20486;-71
2023/07/05 00:39:56;;;;;;;37.75;22.15;;;;;;;;;;5007669;28;20049;-72
2023/07/05 00:42:23;;;;;;;39.95;21.52;;;;;;;;;;5032516;28;20028;-72
2023/07/05 00:45:19;;;;;;;35.83;20.15;;;;;;;;;;5030427;28;20155;-71
2023/07/05 00:47:45;;;;;;;36.63;19.55;;;;;;;;;;5008729;28;20080;-71
2023/07/05 00:50:23;;;;;;;35.28;19.00;;;;;;;;;;5029097;28;20473;-72
2023/07/05 00:52:50;;;;;;;30.30;18.70;;;;;;;;;;5047497;28;20021;-72
2023/07/05 00:55:17;;;;;;;36.67;18.75;;;;;;;;;;5052066;28;20446;-73
2023/07/05 00:57:43;;;;;;;28.38;18.35;;;;;;;;;;5034896;28;20040;-73
2023/07/05 01:00:12;;;;;;;34.90;17.63;;;;;;;;;;5027672;28;20028;-72
2023/07/05 01:02:40;;;;;;;23.30;15.70;;;;;;;;;;5031549;28;20045;-72
2023/07/05 01:05:07;;;;;;;26.77;15.98;;;;;;;;;;5048365;28;20214;-72
2023/07/05 01:07:33;;;;;;;26.52;14.65;;;;;;;;;;5049391;28;20033;-72
2023/07/05 01:10:00;;;;;;;21.63;13.88;;;;;;;;;;5009600;28;20378;-72
2023/07/05 01:12:29;;;;;;;28.13;15.27;;;;;;;;;;5026585;28;20036;-72
2023/07/05 01:14:58;;;;;;;26.27;14.57;;;;;;;;;;5047738;28;20112;-71
2023/07/05 01:17:30;;;;;;;28.02;15.50;;;;;;;;;;5046451;28;20064;-73
2023/07/05 01:20:06;;;;;;;25.05;15.13;;;;;;;;;;5048142;28;20025;-72
2023/07/05 01:22:53;;;;;;;27.80;14.70;;;;;;;;;;5028526;28;20056;-72
2023/07/05 01:25:28;;;;;;;30.27;15.25;;;;;;;;;;5048792;28;20024;-72
2023/07/05 01:27:58;;;;;;;28.52;14.95;;;;;;;;;;5051011;28;20063;-73
2023/07/05 01:30:37;;;;;;;20.42;13.85;;;;;;;;;;5045692;28;20067;-73
2023/07/05 01:33:05;;;;;;;24.88;12.82;;;;;;;;;;5047312;28;20124;-72
2023/07/05 01:35:51;;;;;;;23.25;13.35;;;;;;;;;;5040839;28;20036;-72
2023/07/05 01:38:17;;;;;;;27.23;13.55;;;;;;;;;;5028712;28;20036;-73
2023/07/05 01:40:50;;;;;;;21.25;12.70;;;;;;;;;;5043148;28;20033;-73
2023/07/05 01:43:16;;;;;;;18.52;12.65;;;;;;;;;;5030475;28;20379;-71
2023/07/05 01:45:42;;;;;;;20.33;11.73;;;;;;;;;;5043411;28;20033;-72
2023/07/05 01:48:11;;;;;;;16.55;10.73;;;;;;;;;;5024559;28;20073;-71
2023/07/05 01:50:40;;;;;;;13.82;10.23;;;;;;;;;;5041975;28;20056;-71
2023/07/05 01:53:11;;;;;;;13.13;8.23;;;;;;;;;;5043814;28;20132;-71
2023/07/05 01:55:40;;;;;;;16.58;7.78;;;;;;;;;;5046142;28;20029;-71
2023/07/05 01:58:10;;;;;;;12.23;7.45;;;;;;;;;;5027757;28;20033;-71
2023/07/05 02:00:38;;;;;;;10.52;6.75;;;;;;;;;;5031507;28;20029;-71
2023/07/05 02:03:07;;;;;;;13.55;7.32;;;;;;;;;;5033434;28;20049;-72
2023/07/05 02:05:34;;;;;;;10.65;7.15;;;;;;;;;;5041713;28;20086;-71
2023/07/05 02:08:00;;;;;;;12.90;6.47;;;;;;;;;;5047300;28;20120;-71
2023/07/05 02:10:27;;;;;;;15.48;5.80;;;;;;;;;;5025719;28;20068;-71
2023/07/05 02:12:54;;;;;;;11.52;5.50;;;;;;;;;;5043925;28;20157;-72
2023/07/05 02:15:21;;;;;;;12.68;5.85;;;;;;;;;;5025482;28;20123;-71
2023/07/05 02:17:47;;;;;;;13.57;5.38;;;;;;;;;;5046202;28;20037;-71
2023/07/05 02:20:13;;;;;;;6.63;4.47;;;;;;;;;;5013026;28;20029;-72
2023/07/05 02:22:40;;;;;;;9.07;4.25;;;;;;;;;;5023642;28;20116;-71
2023/07/05 02:25:06;;;;;;;5.45;3.72;;;;;;;;;;5037634;28;20039;-72
2023/07/05 02:27:32;;;;;;;7.45;3.28;;;;;;;;;;5045543;28;20029;-71
2023/07/05 02:29:59;;;;;;;8.07;3.42;;;;;;;;;;5047998;28;20029;-71
2023/07/05 02:32:25;;;;;;;13.82;3.42;;;;;;;;;;5029927;28;20036;-72
2023/07/05 02:34:52;;;;;;;12.43;3.35;;;;;;;;;;5039799;28;20033;-73
2023/07/05 02:37:20;;;;;;;7.57;3.30;;;;;;;;;;5034323;28;20024;-71
2023/07/05 02:39:46;;;;;;;16.45;4.43;;;;;;;;;;5047850;28;20025;-71
2023/07/05 02:42:13;;;;;;;9.75;4.22;;;;;;;;;;5027735;28;20040;-72
2023/07/05 02:44:39;;;;;;;11.27;4.10;;;;;;;;;;5049148;28;20029;-71
2023/07/05 02:47:05;;;;;;;8.77;3.90;;;;;;;;;;5046196;28;20044;-71
2023/07/05 02:49:31;;;;;;;12.40;5.40;;;;;;;;;;5029514;28;20099;-71
2023/07/05 02:51:57;;;;;;;14.55;6.30;;;;;;;;;;5027816;28;20041;-71
2023/07/05 02:54:23;;;;;;;10.20;5.50;;;;;;;;;;5045375;28;20052;-69
2023/07/05 02:56:49;;;;;;;15.77;5.78;;;;;;;;;;5038878;28;20033;-69
2023/07/05 02:59:16;;;;;;;15.45;5.80;;;;;;;;;;5026782;28;20017;-70
2023/07/05 03:01:42;;;;;;;13.10;5.57;;;;;;;;;;5046431;28;20056;-70
2023/07/05 03:04:08;;;;;;;10.27;6.82;;;;;;;;;;5029373;28;20114;-70
2023/07/05 03:06:35;;;;;;;12.85;6.45;;;;;;;;;;5028340;28;20029;-70
2023/07/05 03:09:02;;;;;;;10.65;6.40;;;;;;;;;;5047672;28;20074;-70
2023/07/05 03:11:28;;;;;;;10.60;5.95;;;;;;;;;;5045595;28;20040;-71
2023/07/05 03:13:54;;;;;;;19.58;6.38;;;;;;;;;;5047013;28;20040;-70
2023/07/05 03:16:20;;;;;;;7.90;5.75;;;;;;;;;;5027307;28;20025;-71
2023/07/05 03:18:46;;;;;;;16.33;5.88;;;;;;;;;;5040520;28;20026;-72
2023/07/05 03:21:12;;;;;;;16.23;5.95;;;;;;;;;;5049313;28;20073;-72
2023/07/05 03:23:38;;;;;;;12.15;5.97;;;;;;;;;;5029096;28;20037;-71
2023/07/05 03:26:07;;;;;;;9.02;6.10;;;;;;;;;;5028258;28;20029;-71
2023/07/05 03:28:34;;;;;;;11.35;5.82;;;;;;;;;;5028547;28;20082;-71
2023/07/05 03:31:05;;;;;;;10.52;6.30;;;;;;;;;;5045631;28;20032;-72
2023/07/05 03:33:31;;;;;;;12.55;6.15;;;;;;;;;;5048232;28;20127;-70
2023/07/05 03:36:03;;;;;;;10.93;5.90;;;;;;;;;;5017706;28;20017;-70
2023/07/05 03:38:29;;;;;;;10.73;6.05;;;;;;;;;;5030422;28;20444;-70
2023/07/05 03:41:00;;;;;;;12.68;6.45;;;;;;;;;;5046823;28;20024;-71
2023/07/05 03:43:26;;;;;;;11.00;6.78;;;;;;;;;;5026099;28;20025;-69
2023/07/05 03:45:57;;;;;;;15.07;7.03;;;;;;;;;;5026839;28;20504;-71
2023/07/05 03:48:23;;;;;;;14.40;7.00;;;;;;;;;;5045018;28;20052;-72
2023/07/05 03:50:50;;;;;;;13.85;7.43;;;;;;;;;;5048365;28;20036;-70
2023/07/05 03:53:16;;;;;;;12.45;7.30;;;;;;;;;;5044950;28;20114;-71
2023/07/05 03:55:42;;;;;;;14.35;8.02;;;;;;;;;;5048162;28;20036;-70
2023/07/05 03:58:08;;;;;;;14.75;7.30;;;;;;;;;;5041722;28;20076;-70
2023/07/05 04:00:34;;;;;;;12.00;7.05;;;;;;;;;;5046579;28;20104;-71
2023/07/05 04:03:00;;;;;;;12.02;6.63;;;;;;;;;;5042966;28;20051;-71
2023/07/05 04:05:27;;;;;;;18.55;7.18;;;;;;;;;;5047367;28;20025;-70
2023/07/05 04:07:53;;;;;;;13.98;6.88;;;;;;;;;;5045072;28;20041;-70
2023/07/05 04:10:19;;;;;;;10.27;6.70;;;;;;;;;;5029625;28;20030;-71
2023/07/05 04:12:45;;;;;;;10.95;6.63;;;;;;;;;;5044772;28;20029;-70
2023/07/05 04:15:11;;;;;;;11.18;6.38;;;;;;;;;;5047852;28;21568;-70
2023/07/05 04:17:37;;;;;;;11.48;6.47;;;;;;;;;;5049537;28;20056;-70
2023/07/05 04:20:04;;;;;;;12.40;5.97;;;;;;;;;;5054769;28;20024;-70
2023/07/05 04:22:35;;;;;;;14.70;6.45;;;;;;;;;;5049432;28;20033;-70
2023/07/05 04:25:01;;;;;;;14.43;6.75;;;;;;;;;;5050151;28;20039;-71
2023/07/05 04:27:27;;;;;;;16.45;6.55;;;;;;;;;;5053003;28;20116;-71
2023/07/05 04:29:53;;;;;;;16.80;6.65;;;;;;;;;;5051963;28;20065;-70
2023/07/05 04:32:19;;;;;;;16.38;6.40;;;;;;;;;;5002264;28;20033;-72
2023/07/05 04:34:45;;;;;;;13.52;6.72;;;;;;;;;;5051306;28;20067;-71
2023/07/05 04:37:12;;;;;;;12.68;6.20;;;;;;;;;;5032503;28;20052;-70
2023/07/05 04:39:38;;;;;;;13.32;6.97;;;;;;;;;;5044212;28;20028;-72
2023/07/05 04:42:05;;;;;;;15.30;7.43;;;;;;;;;;5051236;28;20116;-72
2023/07/05 04:44:31;;;;;;;19.05;8.02;;;;;;;;;;5050387;28;20048;-73
2023/07/05 04:46:57;;;;;;;16.15;7.65;;;;;;;;;;5049027;28;20086;-72
2023/07/05 04:49:23;;;;;;;18.65;9.07;;;;;;;;;;5051565;28;20131;-71
2023/07/05 04:51:49;;;;;;;14.38;8.77;;;;;;;;;;5052994;28;20163;-72
2023/07/05 04:54:17;;;;;;;17.55;9.63;;;;;;;;;;5052330;28;20029;-71
2023/07/05 04:56:43;;;;;;;18.25;10.07;;;;;;;;;;5052806;28;20099;-72
2023/07/05 04:59:10;;;;;;;15.52;9.48;;;;;;;;;;5034664;28;20796;-71
2023/07/05 05:01:39;;;;;;;14.50;8.60;;;;;;;;;;5052637;28;20063;-72
2023/07/05 05:04:05;;;;;;;17.10;6.80;;;;;;;;;;5029634;28;20063;-72
2023/07/05 05:06:31;;;;;;;13.68;7.88;;;;;;;;;;5048537;28;20091;-71
2023/07/05 05:08:57;;;;;;;13.57;7.03;;;;;;;;;;5045598;28;20040;-72
2023/07/05 05:11:26;;;;;;;13.85;6.45;;;;;;;;;;5034534;28;20079;-80
2023/07/05 05:13:52;;;;;;;12.55;6.38;;;;;;;;;;5016593;28;20037;-69
2023/07/05 05:16:19;;;;;;;15.18;6.78;;;;;;;;;;5049025;28;20032;-69
2023/07/05 05:18:45;;;;;;;13.75;7.00;;;;;;;;;;5013987;28;20512;-68
2023/07/05 05:21:11;;;;;;;13.73;7.72;;;;;;;;;;5027460;28;20055;-69
2023/07/05 05:23:37;;;;;;;12.90;6.80;;;;;;;;;;5048068;28;20044;-70
2023/07/05 05:26:04;;;;;;;13.43;7.95;;;;;;;;;;5047357;28;20052;-70
2023/07/05 05:28:30;;;;;;;14.63;6.93;;;;;;;;;;5050862;28;20032;-70
2023/07/05 05:31:10;;;;;;;9.60;5.60;;;;;;;;;;5050147;28;20033;-70
2023/07/05 05:33:37;;;;;;;9.13;4.82;;;;;;;;;;5051045;28;20064;-71
2023/07/05 05:36:03;;;;;;;18.52;5.00;;;;;;;;;;5048408;28;20044;-70
2023/07/05 05:38:30;;;;;;;10.43;4.22;;;;;;;;;;5049399;28;20123;-71
2023/07/05 05:41:10;;;;;;;10.52;4.32;;;;;;;;;;5049878;28;20705;-71
2023/07/05 05:43:37;;;;;;;6.68;3.83;;;;;;;;;;5048019;28;20108;-71
2023/07/05 05:46:03;;;;;;;9.77;3.50;;;;;;;;;;5032990;28;20124;-72
2023/07/05 05:48:29;;;;;;;11.90;4.28;;;;;;;;;;5049951;28;20060;-71
2023/07/05 05:50:56;;;;;;;12.35;3.53;;;;;;;;;;5042188;28;20056;-71
2023/07/05 05:53:22;;;;;;;10.10;4.45;;;;;;;;;;5033356;28;20049;-71
2023/07/05 05:55:48;;;;;;;7.88;3.60;;;;;;;;;;5041540;28;20163;-72
2023/07/05 05:58:14;;;;;;;16.63;4.25;;;;;;;;;;5049484;28;20037;-71
2023/07/05 06:00:40;;;;;;;18.77;5.30;;;;;;;;;;5051027;28;20083;-71
2023/07/05 06:03:06;;;;;;;14.65;4.75;;;;;;;;;;5047668;28;20143;-71
2023/07/05 06:05:34;;;;;;;14.88;4.18;;;;;;;;;;5033141;28;20036;-71
2023/07/05 06:08:00;;;;;;;11.85;3.17;;;;;;;;;;5049034;28;20379;-70
2023/07/05 06:10:27;;;;;;;11.93;3.03;;;;;;;;;;5048524;28;20040;-69
2023/07/05 06:12:53;;;;;;;16.92;3.58;;;;;;;;;;5050629;28;20025;-70
2023/07/05 06:15:19;;;;;;;13.20;3.30;;;;;;;;;;5047572;28;20087;-70
2023/07/05 06:17:45;;;;;;;17.38;3.30;;;;;;;;;;5044272;28;20029;-73
2023/07/05 06:20:14;;;;;;;13.15;3.03;;;;;;;;;;5030309;28;20036;-71
2023/07/05 06:22:40;;;;;;;17.48;3.50;;;;;;;;;;5046691;28;20114;-72
2023/07/05 06:25:06;;;;;;;10.43;3.20;;;;;;;;;;5049420;28;20124;-71
2023/07/05 06:27:33;;;;;;;18.25;3.35;;;;;;;;;;5050721;28;20029;-72
2023/07/05 06:29:59;;;;;;;15.55;2.70;;;;;;;;;;5041210;28;20029;-71
2023/07/05 06:32:26;;;;;;;12.88;3.00;;;;;;;;;;5050063;28;20037;-71
2023/07/05 06:34:52;;;;;;;17.02;2.72;;;;;;;;;;5050186;28;20041;-72
2023/07/05 06:37:18;;;;;;;17.98;3.35;;;;;;;;;;5048928;28;20116;-71
2023/07/05 06:39:44;;;;;;;20.80;2.80;;;;;;;;;;5049160;28;20085;-72
2023/07/05 06:42:10;;;;;;;17.55;3.28;;;;;;;;;;5031648;28;20065;-71
2023/07/05 06:44:41;;;;;;;19.90;3.17;;;;;;;;;;5030730;28;20036;-71
2023/07/05 06:47:07;;;;;;;10.32;2.17;;;;;;;;;;5050182;28;20044;-71
2023/07/05 06:49:33;;;;;;;18.42;4.05;;;;;;;;;;5050357;28;20045;-71
2023/07/05 06:51:59;;;;;;;12.25;3.70;;;;;;;;;;5032127;28;20029;-72
2023/07/05 06:54:25;;;;;;;18.58;4.75;;;;;;;;;;5032516;28;20025;-71
2023/07/05 06:56:51;;;;;;;26.58;5.15;;;;;;;;;;5050003;28;20048;-72
2023/07/05 06:59:18;;;;;;;33.53;5.10;;;;;;;;;;5047919;28;20040;-71
2023/07/05 07:01:44;;;;;;;28.58;4.82;;;;;;;;;;5031503;28;20056;-71
2023/07/05 07:04:10;;;;;;;19.58;4.38;;;;;;;;;;5050370;28;20036;-71
2023/07/05 07:06:36;;;;;;;25.30;5.03;;;;;;;;;;5050202;28;20029;-71
2023/07/05 07:09:04;;;;;;;23.08;5.50;;;;;;;;;;5049936;28;20120;-71
2023/07/05 07:11:30;;;;;;;31.17;5.80;;;;;;;;;;5049967;28;20028;-71
2023/07/05 07:13:57;;;;;;;14.10;5.70;;;;;;;;;;5049102;28;20398;-72
2023/07/05 07:16:23;;;;;;;39.90;7.00;;;;;;;;;;5032096;28;20056;-72
2023/07/05 07:18:50;;;;;;;26.25;5.38;;;;;;;;;;5048656;28;20017;-70
2023/07/05 07:21:19;;;;;;;23.23;5.90;;;;;;;;;;5049477;28;20041;-72
2023/07/05 07:23:47;;;;;;;31.00;7.45;;;;;;;;;;5049245;28;20104;-71
2023/07/05 07:26:16;;;;;;;31.17;7.30;;;;;;;;;;5049241;28;20087;-72
2023/07/05 07:28:45;;;;;;;37.60;8.05;;;;;;;;;;5049338;28;20054;-72
2023/07/05 07:31:30;;;;;;;29.63;8.55;;;;;;;;;;5050021;28;20064;-71
2023/07/05 07:33:56;;;;;;;28.85;7.20;;;;;;;;;;5047945;28;20052;-70
2023/07/05 07:36:24;;;;;;;35.22;7.78;;;;;;;;;;5047453;28;20195;-69
2023/07/05 07:38:50;;;;;;;28.80;6.90;;;;;;;;;;5048393;28;20021;-71
2023/07/05 07:41:21;;;;;;;31.00;7.03;;;;;;;;;;5050063;28;20440;-71
2023/07/05 07:43:47;;;;;;;27.98;8.18;;;;;;;;;;5046789;28;20021;-72
2023/07/05 07:46:14;;;;;;;29.48;8.32;;;;;;;;;;5030565;28;20060;-71
2023/07/05 07:48:42;;;;;;;29.33;7.13;;;;;;;;;;5030863;28;20482;-72
2023/07/05 07:51:09;;;;;;;31.48;7.50;;;;;;;;;;5052430;28;20033;-73
2023/07/05 07:53:35;;;;;;;31.95;6.93;;;;;;;;;;5052370;28;20037;-71
2023/07/05 07:56:09;;;;;;;32.15;7.75;;;;;;;;;;5054071;28;20147;-72
2023/07/05 07:58:35;;;;;;;30.35;8.13;;;;;;;;;;5052627;28;20021;-72
2023/07/05 08:01:10;;;;;;;22.67;6.57;;;;;;;;;;5035603;28;20043;-72
2023/07/05 08:03:38;;;;;;;29.40;7.03;;;;;;;;;;5052089;28;20053;-71
2023/07/05 08:06:06;;;;;;;27.30;5.97;;;;;;;;;;5053293;28;20045;-71
2023/07/05 08:08:32;;;;;;;28.35;6.97;;;;;;;;;;5052279;28;20421;-72
2023/07/05 08:10:58;;;;;;;26.35;6.88;;;;;;;;;;5034533;28;20435;-71
2023/07/05 08:13:25;;;;;;;25.08;6.60;;;;;;;;;;5051056;28;20029;-70
2023/07/05 08:15:51;;;;;;;24.13;7.18;;;;;;;;;;5050774;28;20083;-71
2023/07/05 08:18:17;;;;;;;35.55;7.35;;;;;;;;;;5051408;28;20107;-71
2023/07/05 08:20:44;;;;;;;29.00;6.82;;;;;;;;;;5050533;28;20057;-73
2023/07/05 08:23:11;;;;;;;27.00;7.25;;;;;;;;;;5051692;28;20029;-72
2023/07/05 08:25:39;;;;;;;24.33;6.00;;;;;;;;;;5033618;28;20383;-72
2023/07/05 08:28:05;;;;;;;26.10;6.43;;;;;;;;;;5051087;28;20075;-71
2023/07/05 08:30:32;;;;;;;31.65;7.13;;;;;;;;;;5051800;28;20044;-71
2023/07/05 08:32:58;;;;;;;29.42;7.57;;;;;;;;;;5050437;28;20016;-74
2023/07/05 08:35:24;;;;;;;35.53;7.38;;;;;;;;;;5031198;28;20044;-72
2023/07/05 08:37:50;;;;;;;31.50;6.97;;;;;;;;;;5033856;28;20034;-72
2023/07/05 08:40:18;;;;;;;30.83;6.55;;;;;;;;;;5043136;28;20120;-72
2023/07/05 08:43:01;;;;;;;25.52;6.95;;;;;;;;;;5051667;28;20083;-71
2023/07/05 08:45:38;;;;;;;26.58;6.00;;;;;;;;;;5048509;28;20043;-72
2023/07/05 08:48:05;;;;;;;22.17;6.88;;;;;;;;;;5051859;28;20120;-72
2023/07/05 08:50:52;;;;;;;33.60;7.18;;;;;;;;;;5031954;28;20029;-73
2023/07/05 08:53:20;;;;;;;25.88;6.90;;;;;;;;;;5048635;28;20029;-72
2023/07/05 08:56:05;;;;;;;25.77;6.85;;;;;;;;;;5048617;28;20055;-72
2023/07/05 08:58:44;;;;;;;20.75;6.40;;;;;;;;;;5030618;28;20037;-71
2023/07/05 09:01:13;;;;;;;26.50;6.40;;;;;;;;;;5048232;28;20116;-72
2023/07/05 09:03:40;;;;;;;32.47;6.85;;;;;;;;;;5049628;28;20128;-72
2023/07/05 09:06:11;;;;;;;24.00;6.25;;;;;;;;;;5051809;28;20445;-73
2023/07/05 09:08:45;;;;;;;21.52;6.13;;;;;;;;;;5050756;28;20040;-73
2023/07/05 09:11:13;;;;;;;31.88;7.28;;;;;;;;;;5050000;28;20037;-73
2023/07/05 09:13:43;;;;;;;18.83;6.13;;;;;;;;;;5049651;28;20032;-73
2023/07/05 09:16:33;;;;;;;27.67;6.57;;;;;;;;;;5050744;28;20103;-73
2023/07/05 09:19:09;;;;;;;28.30;5.97;;;;;;;;;;5048842;28;20063;-72
2023/07/05 09:21:38;;;;;;;22.92;6.65;;;;;;;;;;5049991;28;20063;-73
2023/07/05 09:24:04;;;;;;;21.85;6.15;;;;;;;;;;5032992;28;20024;-74
2023/07/05 09:26:35;;;;;;;23.05;5.95;;;;;;;;;;5050349;28;20119;-74
2023/07/05 09:29:08;;;;;;;23.38;6.82;;;;;;;;;;5049969;28;20153;-74
2023/07/05 09:31:36;;;;;;;28.58;7.10;;;;;;;;;;5050896;28;20100;-72
2023/07/05 09:34:28;;;;;;;20.23;6.30;;;;;;;;;;5049971;28;20064;-74
2023/07/05 09:36:54;;;;;;;28.27;7.30;;;;;;;;;;4998388;28;20414;-72
2023/07/05 09:39:28;;;;;;;31.48;7.72;;;;;;;;;;5037648;28;20063;-73
2023/07/05 09:41:56;;;;;;;28.95;7.18;;;;;;;;;;5050386;28;20033;-73
2023/07/05 09:44:23;;;;;;;27.33;6.50;;;;;;;;;;5040129;28;20021;-72
2023/07/05 09:46:50;;;;;;;22.77;6.50;;;;;;;;;;5050458;28;20032;-75
2023/07/05 09:49:17;;;;;;;35.45;7.68;;;;;;;;;;5049417;28;20051;-72
2023/07/05 09:51:44;;;;;;;23.10;7.40;;;;;;;;;;5050145;28;20041;-72
2023/07/05 09:54:31;;;;;;;32.88;7.35;;;;;;;;;;5041962;28;20026;-72
2023/07/05 09:56:57;;;;;;;31.13;7.63;;;;;;;;;;5037459;28;20033;-72
2023/07/05 09:59:23;;;;;;;25.92;7.22;;;;;;;;;;5048856;28;20036;-73
2023/07/05 10:01:53;;;;;;;24.75;6.20;;;;;;;;;;5049907;28;20025;-72
2023/07/05 10:04:24;;;;;;;30.75;8.50;;;;;;;;;;5048161;28;20052;-72
2023/07/05 10:06:50;;;;;;;24.17;6.43;;;;;;;;;;5047292;28;20039;-72
2023/07/05 10:09:27;;;;;;;36.20;7.13;;;;;;;;;;5047355;28;20145;-72
2023/07/05 10:11:56;;;;;;;29.48;6.72;;;;;;;;;;5051215;28;20097;-72
2023/07/05 10:14:30;;;;;;;24.52;6.30;;;;;;;;;;5029230;28;20116;-72
2023/07/05 10:16:57;;;;;;;21.38;5.72;;;;;;;;;;5034945;28;20426;-72
2023/07/05 10:19:24;;;;;;;19.75;6.00;;;;;;;;;;5044468;28;20161;-72
2023/07/05 10:22:09;;;;;;;16.88;5.93;;;;;;;;;;5049786;28;20053;-72
2023/07/05 10:24:43;;;;;;;21.50;7.30;;;;;;;;;;5049310;28;20037;-73
2023/07/05 10:27:28;;;;;;;24.80;6.15;;;;;;;;;;5048985;28;20029;-73
2023/07/05 10:30:00;;;;;;;32.63;9.30;;;;;;;;;;5047988;28;20083;-73
2023/07/05 10:32:26;;;;;;;25.95;7.95;;;;;;;;;;5048325;28;20498;-73
2023/07/05 10:34:55;;;;;;;24.50;6.15;;;;;;;;;;5050144;28;20055;-72
2023/07/05 10:37:34;;;;;;;18.48;6.55;;;;;;;;;;5049415;28;20037;-73
2023/07/05 10:40:09;;;;;;;20.30;6.57;;;;;;;;;;5047691;28;20036;-73
2023/07/05 10:42:49;;;;;;;29.17;7.70;;;;;;;;;;5032479;28;20033;-72
2023/07/05 10:45:17;;;;;;;29.93;8.30;;;;;;;;;;5047786;28;20117;-72
2023/07/05 10:47:45;;;;;;;30.55;9.85;;;;;;;;;;5031644;28;20033;-73
2023/07/05 10:50:13;;;;;;;31.70;9.48;;;;;;;;;;5029199;28;20034;-72
2023/07/05 10:52:42;;;;;;;28.60;8.20;;;;;;;;;;5048557;28;20055;-73
2023/07/05 10:55:19;;;;;;;21.35;6.78;;;;;;;;;;5049707;28;20029;-72
2023/07/05 10:57:53;;;;;;;16.20;4.60;;;;;;;;;;5048396;28;20132;-72
2023/07/05 11:00:21;;;;;;;13.13;3.75;;;;;;;;;;5049372;28;20053;-72
2023/07/05 11:02:55;;;;;;;16.40;4.20;;;;;;;;;;5048552;28;20053;-72
2023/07/05 11:05:39;;;;;;;18.25;5.38;;;;;;;;;;5047386;28;20094;-72
2023/07/05 11:08:12;;;;;;;13.10;4.00;;;;;;;;;;5049475;28;20029;-72
2023/07/05 11:10:41;;;;;;;17.90;4.70;;;;;;;;;;5057676;28;20104;-71
2023/07/05 11:13:13;;;;;;;15.50;5.05;;;;;;;;;;5049160;28;20029;-72
2023/07/05 11:15:39;;;;;;;20.10;5.85;;;;;;;;;;5031483;28;20112;-72
2023/07/05 11:18:07;;;;;;;18.45;6.03;;;;;;;;;;5048974;28;20036;-71
2023/07/05 11:20:39;;;;;;;18.35;5.65;;;;;;;;;;5035721;28;20033;-71
2023/07/05 11:23:05;;;;;;;20.48;5.00;;;;;;;;;;5048781;28;20216;-71
2023/07/05 11:25:52;;;;;;;16.67;4.63;;;;;;;;;;5048990;28;20051;-70
2023/07/05 11:28:44;;;;;;;10.65;4.78;;;;;;;;;;5035646;28;20112;-70
2023/07/05 11:31:30;;;;;;;15.02;5.03;;;;;;;;;;5043661;28;20047;-72
2023/07/05 11:34:15;;;;;;;18.08;5.13;;;;;;;;;;5048794;28;20072;-70
2023/07/05 11:36:42;;;;;;;18.33;4.88;;;;;;;;;;5048242;28;20083;-71
2023/07/05 11:39:09;;;;;;;13.15;4.43;;;;;;;;;;5050284;28;20419;-72
2023/07/05 11:41:38;;;;;;;17.25;5.22;;;;;;;;;;5047369;28;20079;-72
2023/07/05 11:44:04;;;;;;;12.93;5.18;;;;;;;;;;5049053;28;20037;-73
2023/07/05 11:46:41;;;;;;;20.52;5.93;;;;;;;;;;5049341;28;20060;-72
2023/07/05 11:49:26;;;;;;;24.77;6.43;;;;;;;;;;5049037;28;20021;-72
2023/07/05 11:52:00;;;;;;;17.52;6.88;;;;;;;;;;5043675;28;20092;-73
2023/07/05 11:54:37;;;;;;;19.02;6.18;;;;;;;;;;5043456;28;20025;-72
2023/07/05 11:57:05;;;;;;;15.88;6.00;;;;;;;;;;5048417;28;20033;-71
2023/07/05 11:59:34;;;;;;;23.33;6.63;;;;;;;;;;5048184;28;20075;-72
2023/07/05 12:02:08;;;;;;;17.33;6.57;;;;;;;;;;5048550;28;20049;-73
2023/07/05 12:04:38;;;;;;;16.73;6.47;;;;;;;;;;5047011;28;20044;-72
2023/07/05 12:07:04;;;;;;;21.45;6.15;;;;;;;;;;5047788;28;20029;-71
2023/07/05 12:09:35;;;;;;;26.73;6.85;;;;;;;;;;5046439;28;20061;-72
2023/07/05 12:12:03;;;;;;;24.27;6.90;;;;;;;;;;5047555;28;20116;-72
2023/07/05 12:14:30;;;;;;;19.23;7.35;;;;;;;;;;5030298;28;20060;-72
2023/07/05 12:16:56;;;;;;;21.67;6.80;;;;;;;;;;5030124;28;20494;-72
2023/07/05 12:19:27;;;;;;;24.10;7.97;;;;;;;;;;5047193;28;20068;-72
2023/07/05 12:21:55;;;;;;;29.83;8.27;;;;;;;;;;5047912;28;20029;-73
2023/07/05 12:24:21;;;;;;;27.50;7.80;;;;;;;;;;5030301;28;20440;-73
2023/07/05 12:26:47;;;;;;;19.65;7.32;;;;;;;;;;5028465;28;20156;-73
2023/07/05 12:29:32;;;;;;;21.88;7.78;;;;;;;;;;5042105;28;20036;-74
2023/07/05 12:32:02;;;;;;;25.30;7.70;;;;;;;;;;5047564;28;20075;-71
2023/07/05 12:34:29;;;;;;;18.20;7.70;;;;;;;;;;5048887;28;20036;-74
2023/07/05 12:36:55;;;;;;;17.08;7.68;;;;;;;;;;5050126;28;20027;-73
2023/07/05 12:39:22;;;;;;;21.50;8.20;;;;;;;;;;5050612;28;20037;-73
2023/07/05 12:41:58;;;;;;;18.88;6.85;;;;;;;;;;5049770;28;20032;-72
2023/07/05 12:44:24;;;;;;;36.90;9.32;;;;;;;;;;5053175;28;20409;-73
2023/07/05 12:46:51;;;;;;;20.27;8.30;;;;;;;;;;5052628;28;20125;-73
2023/07/05 12:49:22;;;;;;;22.77;8.38;;;;;;;;;;5052675;28;20037;-72
2023/07/05 12:51:48;;;;;;;;;;;;;;;;;;5062192;28;20051;-73
2023/07/05 12:54:14;;;;;;;23.02;8.27;;;;;;;;;;5051708;28;19908;-73
2023/07/05 12:56:44;;;;;;;17.90;7.43;;;;;;;;;;5018614;28;20033;-72
2023/07/05 12:59:29;;;;;;;18.45;7.43;;;;;;;;;;5052928;28;20104;-71
2023/07/05 13:01:55;;;;;;;23.40;7.68;;;;;;;;;;5049010;28;20025;-71
2023/07/05 13:04:22;;;;;;;15.90;7.43;;;;;;;;;;5052259;28;20040;-72
2023/07/05 13:06:49;;;;;;;22.08;7.38;;;;;;;;;;5050560;28;20048;-73
2023/07/05 13:09:28;;;;;;;21.98;7.35;;;;;;;;;;5051261;28;20044;-72
2023/07/05 13:11:56;;;;;;;16.70;7.15;;;;;;;;;;5051631;28;20048;-71
2023/07/05 13:14:44;;;;;;;18.35;6.60;;;;;;;;;;5051420;28;20092;-71
2023/07/05 13:17:10;;;;;;;14.38;5.43;;;;;;;;;;5050973;28;20557;-72
2023/07/05 13:19:43;;;;;;;13.00;5.47;;;;;;;;;;5051354;28;20104;-72
2023/07/05 13:22:16;;;;;;;13.40;5.93;;;;;;;;;;5040731;28;20060;-72
2023/07/05 13:24:46;;;;;;;19.17;6.22;;;;;;;;;;5050455;28;20029;-71
2023/07/05 13:27:21;;;;;;;14.98;5.68;;;;;;;;;;5050428;28;20045;-71
2023/07/05 13:29:48;;;;;;;16.52;6.97;;;;;;;;;;5050865;28;20037;-71
2023/07/05 13:32:23;;;;;;;338.15;29.67;;;;;;;;;;5049788;28;20032;-71
2023/07/05 13:34:49;;;;;;;13.32;5.93;;;;;;;;;;5032270;28;20454;-72
2023/07/05 13:37:18;;;;;;;13.82;4.70;;;;;;;;;;5049098;28;20037;-71
2023/07/05 13:39:45;;;;;;;13.13;5.45;;;;;;;;;;5049256;28;20029;-71
2023/07/05 13:42:11;;;;;;;22.55;7.13;;;;;;;;;;5034828;28;20482;-72
2023/07/05 13:44:38;;;;;;;19.98;5.50;;;;;;;;;;5019064;28;20040;-71
2023/07/05 13:47:04;;;;;;;14.65;5.57;;;;;;;;;;5048732;28;20100;-72
2023/07/05 13:49:31;;;;;;;12.10;4.63;;;;;;;;;;5050158;28;20036;-71
2023/07/05 13:51:58;;;;;;;13.90;4.88;;;;;;;;;;5048873;28;20037;-72
2023/07/05 13:54:24;;;;;;;12.73;5.40;;;;;;;;;;5049108;28;20485;-71
2023/07/05 13:56:51;;;;;;;12.35;5.25;;;;;;;;;;5048006;28;20025;-72
2023/07/05 13:59:19;;;;;;;15.60;4.93;;;;;;;;;;5046474;28;20108;-70
2023/07/05 14:01:46;;;;;;;17.30;5.15;;;;;;;;;;5049265;28;20028;-70
2023/07/05 14:04:13;;;;;;;11.00;4.40;;;;;;;;;;5047785;28;20044;-70
2023/07/05 14:06:39;;;;;;;13.38;3.97;;;;;;;;;;5013362;28;20037;-70
2023/07/05 14:09:06;;;;;;;16.70;4.10;;;;;;;;;;5031140;28;20053;-70
2023/07/05 14:11:39;;;;;;;12.07;3.95;;;;;;;;;;5037659;28;20057;-70
2023/07/05 14:14:05;;;;;;;11.90;3.92;;;;;;;;;;5048121;28;20029;-71
2023/07/05 14:16:33;;;;;;;12.82;3.83;;;;;;;;;;5049030;28;20048;-70
2023/07/05 14:18:59;;;;;;;16.60;4.75;;;;;;;;;;5050381;28;20056;-69
2023/07/05 14:21:35;;;;;;;10.38;3.72;;;;;;;;;;5049223;28;20045;-70
2023/07/05 14:24:03;;;;;;;7.85;3.55;;;;;;;;;;5050025;28;20036;-71
2023/07/05 14:26:29;;;;;;;11.38;3.72;;;;;;;;;;5050111;28;20116;-70
2023/07/05 14:28:56;;;;;;;11.68;4.05;;;;;;;;;;5038737;28;20494;-70
2023/07/05 14:31:22;;;;;;;7.22;3.45;;;;;;;;;;5012285;28;20402;-70
2023/07/05 14:33:49;;;;;;;11.95;4.07;;;;;;;;;;5031228;28;20068;-70
2023/07/05 14:36:16;;;;;;;11.70;3.90;;;;;;;;;;5035457;28;20052;-70
2023/07/05 14:38:42;;;;;;;13.30;3.90;;;;;;;;;;5047693;28;20033;-69